Time;durP1;ratioP1;P1;durP2;ratioP2;P2;SDS_P1;SDS_P2;PMS_P1;PMS_P2;Temp;Humidity;BMP_temperature;BMP_pressure;BME280_temperature;BME280_humidity;BME280_pressure;Samples;Min_cycle;Max_cycle;Signal;HPM_P1;HPM_P2
2021/05/01 00:00:33;;;;;;;10.78;9.75;;;;;;;13.73;75.80;99932.77;1648423;85;21058;-86
2021/05/01 00:03:00;;;;;;;10.10;9.10;;;;;;;13.70;75.90;99921.98;1662084;84;21827;-85
2021/05/01 00:05:27;;;;;;;10.75;8.93;;;;;;;13.75;75.76;99917.30;1677836;84;21229;-87
2021/05/01 00:07:54;;;;;;;12.07;10.95;;;;;;;13.73;75.79;99924.73;1678050;84;21608;-86
2021/05/01 00:10:21;;;;;;;10.20;9.20;;;;;;;13.72;76.01;99927.13;1645360;85;21201;-86
2021/05/01 00:12:48;;;;;;;14.40;10.75;;;;;;;13.67;76.15;99930.45;1639381;84;22092;-86
2021/05/01 00:15:16;;;;;;;11.55;9.95;;;;;;;13.61;76.10;99932.14;1668629;84;21167;-87
2021/05/01 00:17:43;;;;;;;11.53;9.10;;;;;;;13.59;76.12;99932.06;1650112;85;21646;-86
2021/05/01 00:20:12;;;;;;;23.83;10.80;;;;;;;13.61;75.98;99931.33;1670303;84;21175;-86
2021/05/01 00:22:38;;;;;;;10.93;9.93;;;;;;;13.60;75.89;99932.38;1645190;81;21094;-85
2021/05/01 00:25:08;;;;;;;11.30;10.23;;;;;;;13.52;76.04;99936.12;1624709;87;21234;-85
2021/05/01 00:27:35;;;;;;;11.38;10.55;;;;;;;13.42;76.11;99939.28;1629763;86;21184;-86
2021/05/01 00:30:05;;;;;;;10.95;10.05;;;;;;;13.32;76.38;99928.25;1641932;86;21173;-86
2021/05/01 00:32:34;;;;;;;10.82;10.03;;;;;;;13.30;76.51;99933.00;1626028;86;21325;-85
2021/05/01 00:35:03;;;;;;;10.80;9.75;;;;;;;13.33;76.37;99927.72;1651235;85;21224;-85
2021/05/01 00:37:30;;;;;;;11.28;10.18;;;;;;;13.35;76.48;99929.14;1645702;85;21218;-87
2021/05/01 00:39:57;;;;;;;11.57;10.50;;;;;;;13.34;76.67;99926.70;1640027;85;21343;-85
2021/05/01 00:42:25;;;;;;;12.03;10.82;;;;;;;13.30;76.74;99931.66;1627063;87;21622;-85
2021/05/01 00:44:52;;;;;;;10.90;9.98;;;;;;;13.25;76.93;99934.94;1639589;84;21105;-86
2021/05/01 00:47:19;;;;;;;11.45;10.25;;;;;;;13.25;76.70;99943.50;1637492;85;21660;-87
2021/05/01 00:49:46;;;;;;;11.03;9.98;;;;;;;13.28;76.50;99937.72;1614968;86;21199;-87
2021/05/01 00:52:14;;;;;;;11.10;10.10;;;;;;;13.28;76.42;99944.41;1702554;83;21157;-87
2021/05/01 00:54:43;;;;;;;12.37;11.25;;;;;;;13.25;76.32;99939.48;1704801;83;21141;-88
2021/05/01 00:57:11;;;;;;;11.03;10.08;;;;;;;13.17;76.52;99945.09;1649268;82;21540;-87
2021/05/01 00:59:39;;;;;;;15.00;10.18;;;;;;;13.08;76.63;99943.19;1646693;85;21575;-88
2021/05/01 01:02:07;;;;;;;12.70;11.33;;;;;;;13.03;76.59;99949.19;1715922;81;21088;-86
2021/05/01 01:04:35;;;;;;;11.28;10.28;;;;;;;13.03;76.50;99938.48;1724726;81;21722;-86
2021/05/01 01:07:03;;;;;;;11.12;10.13;;;;;;;13.01;76.46;99947.22;1693627;83;21173;-86
2021/05/01 01:09:33;;;;;;;11.97;10.90;;;;;;;12.97;76.56;99960.72;1731530;81;21243;-87
2021/05/01 01:12:02;;;;;;;12.15;10.88;;;;;;;12.86;76.74;99956.04;1720696;81;21052;-87
2021/05/01 01:14:31;;;;;;;13.32;10.82;;;;;;;12.79;76.97;99953.91;1732168;81;21218;-87
2021/05/01 01:16:58;;;;;;;11.75;9.68;;;;;;;12.78;77.24;99953.62;1686178;83;21172;-87
2021/05/01 01:19:26;;;;;;;10.58;9.68;;;;;;;12.81;77.14;99955.87;1682960;83;21733;-89
2021/05/01 01:21:53;;;;;;;9.78;8.88;;;;;;;12.83;77.29;99965.32;1670447;84;21184;-87
2021/05/01 01:24:20;;;;;;;10.35;9.35;;;;;;;12.84;77.46;99964.80;1725111;81;21188;-88
2021/05/01 01:26:48;;;;;;;10.45;9.53;;;;;;;12.81;77.66;99966.58;1727056;81;21327;-87
2021/05/01 01:29:15;;;;;;;11.88;10.68;;;;;;;12.75;77.82;99975.42;1734007;81;21174;-88
2021/05/01 01:31:44;;;;;;;10.20;9.35;;;;;;;12.70;77.73;99971.25;1697852;83;21149;-89
2021/05/01 01:34:12;;;;;;;11.40;10.40;;;;;;;12.74;77.73;99976.47;1735158;81;21211;-89
2021/05/01 01:36:39;;;;;;;11.78;10.78;;;;;;;12.77;77.70;99981.38;1735683;81;21315;-89
2021/05/01 01:39:07;;;;;;;11.18;10.08;;;;;;;12.75;77.69;99983.45;1727233;81;21696;-89
2021/05/01 01:41:35;;;;;;;11.83;10.70;;;;;;;12.65;77.57;99983.38;1731395;82;21631;-88
2021/05/01 01:44:03;;;;;;;12.70;11.40;;;;;;;12.57;77.80;99988.14;1725580;81;21379;-87
2021/05/01 01:46:30;;;;;;;11.33;10.13;;;;;;;12.57;77.82;99988.14;1676777;83;22096;-86
2021/05/01 01:48:57;;;;;;;10.98;9.75;;;;;;;12.63;77.69;99988.11;1670588;84;21383;-84
2021/05/01 01:51:24;;;;;;;10.28;9.38;;;;;;;12.67;77.58;99989.85;1722583;81;21126;-89
2021/05/01 01:53:52;;;;;;;13.10;10.23;;;;;;;12.64;77.49;99991.11;1720360;81;21616;-88
2021/05/01 01:56:19;;;;;;;11.80;10.70;;;;;;;12.57;77.54;99994.30;1730978;81;21314;-89
2021/05/01 01:58:47;;;;;;;11.00;9.68;;;;;;;12.52;77.67;99995.44;1732984;81;21273;-89
2021/05/01 02:01:14;;;;;;;9.98;9.08;;;;;;;12.49;77.75;99992.36;1690943;81;21109;-87
2021/05/01 02:03:44;;;;;;;10.68;9.78;;;;;;;12.57;77.47;100005.52;1649701;86;21195;-87
2021/05/01 02:06:12;;;;;;;10.78;9.73;;;;;;;12.56;77.49;100007.88;1649992;85;21667;-86
2021/05/01 02:08:40;;;;;;;11.33;10.23;;;;;;;12.49;77.90;100010.58;1652664;85;21185;-88
2021/05/01 02:11:08;;;;;;;9.98;9.05;;;;;;;12.37;78.74;100016.24;1655209;83;21339;-87
2021/05/01 02:13:35;;;;;;;11.20;10.20;;;;;;;12.30;79.03;100018.09;1718961;82;21300;-86
2021/05/01 02:16:03;;;;;;;10.58;9.58;;;;;;;12.27;78.88;100019.34;1717355;83;21208;-86
2021/05/01 02:18:30;;;;;;;10.15;9.35;;;;;;;12.21;78.87;100025.00;1656759;84;21203;-86
2021/05/01 02:21:00;;;;;;;11.75;10.65;;;;;;;12.17;78.91;100026.45;1712096;82;21138;-88
2021/05/01 02:23:27;;;;;;;11.83;10.82;;;;;;;12.13;78.97;100025.71;1714434;82;21897;-86
2021/05/01 02:25:55;;;;;;;10.93;9.88;;;;;;;12.06;79.00;100025.73;1702798;82;21232;-85
2021/05/01 02:28:22;;;;;;;10.75;9.75;;;;;;;12.06;79.11;100025.73;1699952;82;21200;-85
2021/05/01 02:30:51;;;;;;;11.15;10.05;;;;;;;12.15;78.84;100031.67;1707845;82;21199;-86
2021/05/01 02:33:18;;;;;;;11.45;10.38;;;;;;;12.19;78.84;100031.06;1701542;82;21212;-87
2021/05/01 02:35:45;;;;;;;12.05;10.98;;;;;;;12.26;79.10;100029.22;1677117;84;21627;-88
2021/05/01 02:38:12;;;;;;;12.07;10.98;;;;;;;12.27;79.12;100033.52;1675518;84;21181;-86
2021/05/01 02:40:41;;;;;;;11.10;10.10;;;;;;;12.36;79.12;100032.80;1673488;84;21891;-86
2021/05/01 02:43:12;;;;;;;13.20;10.43;;;;;;;12.49;78.96;100037.31;1667807;84;21323;-86
2021/05/01 02:45:40;;;;;;;12.78;11.65;;;;;;;12.55;78.40;100034.33;1679147;83;22042;-86
2021/05/01 02:48:11;;;;;;;12.23;11.08;;;;;;;12.56;78.49;100037.28;1707602;82;21318;-87
2021/05/01 02:50:39;;;;;;;12.28;11.08;;;;;;;12.57;78.56;100033.08;1678682;84;21166;-86
2021/05/01 02:53:07;;;;;;;11.65;10.58;;;;;;;12.65;78.50;100038.19;1664300;84;21157;-86
2021/05/01 02:55:34;;;;;;;11.30;10.20;;;;;;;12.77;78.04;100037.54;1662447;85;21172;-87
2021/05/01 02:58:02;;;;;;;11.83;10.50;;;;;;;12.87;77.86;100042.48;1672162;84;21611;-87
2021/05/01 03:00:30;;;;;;;12.55;11.35;;;;;;;12.90;77.54;100049.53;1649917;85;21079;-86
2021/05/01 03:02:57;;;;;;;12.00;10.82;;;;;;;12.91;77.36;100045.84;1664453;85;21172;-86
2021/05/01 03:05:26;;;;;;;11.93;10.82;;;;;;;12.93;77.39;100045.64;1650241;85;21168;-86
2021/05/01 03:07:55;;;;;;;11.68;10.68;;;;;;;13.03;77.11;100054.88;1698226;84;21103;-86
2021/05/01 03:10:26;;;;;;;11.55;10.35;;;;;;;13.19;76.81;100047.40;1699126;84;21146;-86
2021/05/01 03:12:54;;;;;;;12.23;10.32;;;;;;;13.42;76.48;100058.42;1680987;82;21042;-86
2021/05/01 03:15:23;;;;;;;10.95;10.03;;;;;;;13.72;76.03;100053.83;1641324;85;21186;-86
2021/05/01 03:17:53;;;;;;;12.43;10.35;;;;;;;14.05;75.22;100057.31;1657572;85;21192;-89
2021/05/01 03:20:21;;;;;;;10.30;9.13;;;;;;;14.44;74.38;100066.88;1658942;85;21154;-90
2021/05/01 03:22:49;;;;;;;8.95;8.10;;;;;;;14.82;72.35;100068.59;1651987;85;21038;-87
2021/05/01 03:25:18;;;;;;;9.10;8.30;;;;;;;15.20;71.11;100074.28;1630912;86;21199;-87
2021/05/01 03:27:46;;;;;;;11.22;10.23;;;;;;;15.56;69.22;100074.73;1637393;86;21179;-87
2021/05/01 03:30:17;;;;;;;9.73;8.85;;;;;;;15.88;67.88;100073.69;1637681;86;21203;-87
2021/05/01 03:32:45;;;;;;;10.75;9.25;;;;;;;16.13;67.10;100068.15;1615330;86;21401;-87
2021/05/01 03:35:14;;;;;;;10.23;9.33;;;;;;;16.50;65.66;100079.53;1620995;86;21339;-87
2021/05/01 03:37:43;;;;;;;11.18;9.85;;;;;;;16.78;64.68;100080.67;1631625;86;21208;-87
2021/05/01 03:40:12;;;;;;;9.75;8.80;;;;;;;17.11;63.56;100082.77;1634265;86;21767;-87
2021/05/01 03:42:39;;;;;;;9.78;8.95;;;;;;;17.40;62.70;100080.09;1625268;86;21226;-87
2021/05/01 03:45:08;;;;;;;8.53;7.87;;;;;;;17.69;61.56;100074.73;1630038;85;21129;-86
2021/05/01 03:47:35;;;;;;;10.03;9.13;;;;;;;17.97;60.84;100080.65;1688331;83;21177;-88
2021/05/01 03:50:05;;;;;;;10.18;9.38;;;;;;;18.26;60.10;100087.32;1665363;85;21209;-89
2021/05/01 03:52:32;;;;;;;9.40;8.65;;;;;;;18.51;59.13;100088.78;1658354;85;21163;-88
2021/05/01 03:55:01;;;;;;;12.55;8.85;;;;;;;18.73;58.41;100090.19;1643658;85;21398;-85
2021/05/01 03:57:30;;;;;;;11.00;10.05;;;;;;;19.01;58.05;100098.70;1655588;85;21801;-88
2021/05/01 03:59:57;;;;;;;10.58;9.63;;;;;;;19.29;56.99;100097.71;1629481;86;21694;-89
2021/05/01 04:02:24;;;;;;;11.12;10.20;;;;;;;19.57;56.15;100104.80;1596593;86;21129;-89
2021/05/01 04:04:51;;;;;;;11.15;10.25;;;;;;;19.83;55.56;100105.91;1597344;88;21361;-89
2021/05/01 04:07:18;;;;;;;10.75;9.88;;;;;;;20.10;54.87;100102.88;1594245;88;21667;-86
2021/05/01 04:09:46;;;;;;;10.45;9.53;;;;;;;20.36;54.47;100111.52;1591138;88;21202;-87
2021/05/01 04:12:13;;;;;;;10.00;9.13;;;;;;;20.61;53.90;100111.45;1593186;87;21135;-87
2021/05/01 04:14:40;;;;;;;10.05;9.25;;;;;;;20.80;52.41;100110.48;1598321;88;21232;-86
2021/05/01 04:17:07;;;;;;;10.80;9.80;;;;;;;20.93;51.67;100109.22;1583665;88;21259;-87
2021/05/01 04:19:34;;;;;;;9.85;8.78;;;;;;;21.11;51.18;100118.22;1569782;89;21217;-86
2021/05/01 04:22:05;;;;;;;9.63;8.78;;;;;;;21.23;50.06;100111.25;1580899;89;21409;-87
2021/05/01 04:24:35;;;;;;;10.55;9.73;;;;;;;21.17;50.21;100116.36;1588442;89;21233;-87
2021/05/01 04:27:02;;;;;;;10.10;9.20;;;;;;;21.12;50.51;100113.09;1597549;88;21239;-87
2021/05/01 04:29:34;;;;;;;10.85;9.85;;;;;;;21.29;50.60;100122.39;1609801;88;21174;-88
2021/05/01 04:32:01;;;;;;;11.50;10.50;;;;;;;21.60;49.36;100121.70;1590977;89;21289;-87
2021/05/01 04:34:28;;;;;;;9.98;8.98;;;;;;;21.77;49.11;100119.58;1577452;88;21268;-87
2021/05/01 04:36:58;;;;;;;11.33;10.28;;;;;;;21.96;48.71;100116.64;1578284;89;21370;-84
2021/05/01 04:39:25;;;;;;;10.43;9.43;;;;;;;22.16;48.36;100117.73;1570998;89;21228;-87
2021/05/01 04:41:55;;;;;;;10.13;9.33;;;;;;;22.13;47.68;100123.70;1582030;89;21363;-84
2021/05/01 04:44:24;;;;;;;10.40;9.35;;;;;;;21.87;47.96;100115.55;1551628;89;21252;-85
2021/05/01 04:46:53;;;;;;;11.30;10.40;;;;;;;21.40;49.05;100117.83;1575725;90;21634;-85
2021/05/01 04:49:20;;;;;;;10.58;9.75;;;;;;;21.11;50.04;100129.61;1591037;88;21218;-84
2021/05/01 04:51:47;;;;;;;11.53;10.53;;;;;;;21.10;50.31;100130.16;1629068;87;21213;-83
2021/05/01 04:54:14;;;;;;;11.43;10.32;;;;;;;21.06;50.79;100131.77;1617931;88;21741;-83
2021/05/01 04:56:41;;;;;;;10.95;9.93;;;;;;;21.15;50.63;100129.36;1607537;85;21136;-85
2021/05/01 04:59:08;;;;;;;11.63;10.70;;;;;;;21.38;50.28;100121.34;1608421;88;21702;-85
2021/05/01 05:01:38;;;;;;;11.57;10.58;;;;;;;21.52;48.87;100120.33;1603668;88;21121;-85
2021/05/01 05:04:06;;;;;;;11.28;10.28;;;;;;;21.34;49.80;100125.64;1601811;88;21172;-84
2021/05/01 05:06:32;;;;;;;12.07;10.90;;;;;;;21.29;50.42;100123.74;1606248;88;21766;-84
2021/05/01 05:09:00;;;;;;;11.78;10.68;;;;;;;21.57;50.20;100119.80;1603674;88;21371;-83
2021/05/01 05:11:27;;;;;;;12.23;11.03;;;;;;;21.80;49.15;100119.05;1604413;86;21250;-82
2021/05/01 05:13:54;;;;;;;11.78;10.75;;;;;;;21.91;48.96;100117.98;1605826;88;21275;-83
2021/05/01 05:16:21;;;;;;;10.58;9.58;;;;;;;22.12;48.60;100113.94;1607184;88;21192;-82
2021/05/01 05:18:48;;;;;;;10.58;9.68;;;;;;;22.11;47.89;100110.42;1607034;88;21213;-83
2021/05/01 05:21:15;;;;;;;11.50;10.48;;;;;;;21.93;48.69;100113.10;1607660;88;21217;-83
2021/05/01 05:23:42;;;;;;;11.25;10.20;;;;;;;21.88;48.40;100110.38;1603802;88;21517;-85
2021/05/01 05:26:09;;;;;;;11.55;10.55;;;;;;;21.71;48.80;100111.16;1623205;87;21239;-86
2021/05/01 05:28:38;;;;;;;10.80;9.88;;;;;;;21.61;49.21;100115.22;1621467;87;21229;-85
2021/05/01 05:31:07;;;;;;;11.80;10.88;;;;;;;21.26;49.26;100057.05;1610143;88;21807;-85
2021/05/01 05:33:37;;;;;;;10.78;10.00;;;;;;;21.78;49.11;100117.95;1590500;87;21267;-84
2021/05/01 05:36:04;;;;;;;11.35;10.35;;;;;;;21.89;48.58;100116.08;1608740;88;21690;-84
2021/05/01 05:38:31;;;;;;;11.12;10.13;;;;;;;21.80;49.25;100117.69;1605762;88;21197;-85
2021/05/01 05:40:58;;;;;;;10.25;9.40;;;;;;;21.88;49.89;100113.09;1612461;88;21233;-85
2021/05/01 05:43:27;;;;;;;11.70;10.72;;;;;;;22.04;48.85;100110.38;1610841;88;21184;-82
2021/05/01 05:45:54;;;;;;;10.60;9.68;;;;;;;22.14;48.71;100113.12;1603784;85;21143;-84
2021/05/01 05:48:22;;;;;;;11.20;10.20;;;;;;;22.27;48.86;100113.97;1598111;88;21346;-86
2021/05/01 05:50:49;;;;;;;11.93;10.72;;;;;;;22.57;48.14;100114.23;1617709;87;21209;-83
2021/05/01 05:53:16;;;;;;;11.40;10.20;;;;;;;22.86;47.44;100114.44;1603570;88;21226;-83
2021/05/01 05:55:42;;;;;;;10.48;9.63;;;;;;;23.04;47.53;100116.60;1598449;85;21125;-83
2021/05/01 05:58:17;;;;;;;11.40;10.50;;;;;;;23.26;47.17;100116.78;1605296;87;21203;-84
2021/05/01 06:00:44;;;;;;;9.53;8.85;;;;;;;23.46;46.22;100118.05;1620893;87;21678;-84
2021/05/01 06:03:12;;;;;;;11.20;10.23;;;;;;;23.39;46.09;100119.45;1645409;86;21196;-82
2021/05/01 06:05:46;;;;;;;10.05;9.25;;;;;;;23.33;46.38;100123.55;1644578;86;21622;-83
2021/05/01 06:08:14;;;;;;;10.40;9.70;;;;;;;23.29;46.62;100124.39;1638851;87;21203;-84
2021/05/01 06:10:44;;;;;;;10.75;9.68;;;;;;;23.22;46.90;100124.67;1614263;87;21509;-84
2021/05/01 06:13:13;;;;;;;10.25;9.35;;;;;;;23.35;45.92;100123.83;1617329;85;21133;-82
2021/05/01 06:15:41;;;;;;;9.65;8.75;;;;;;;23.35;45.99;100125.98;1608407;89;21230;-85
2021/05/01 06:18:11;;;;;;;11.30;10.40;;;;;;;23.13;46.17;100126.34;1608448;88;21212;-84
2021/05/01 06:20:40;;;;;;;11.00;10.10;;;;;;;22.82;47.13;100122.88;1613019;88;21202;-84
2021/05/01 06:23:09;;;;;;;13.38;11.35;;;;;;;22.69;46.95;100129.69;1608772;87;21597;-84
2021/05/01 06:25:38;;;;;;;11.45;10.48;;;;;;;22.61;46.86;100137.85;1605996;89;21214;-84
2021/05/01 06:28:05;;;;;;;12.33;11.38;;;;;;;22.33;47.05;100131.08;1605674;89;21233;-85
2021/05/01 06:30:38;;;;;;;11.78;10.80;;;;;;;21.95;48.14;100128.56;1611007;88;21190;-84
2021/05/01 06:33:03;;;;;;;11.90;10.90;;;;;;;21.86;49.34;100135.61;1611179;88;21388;-84
2021/05/01 06:35:30;;;;;;;12.03;11.03;;;;;;;22.03;48.34;100134.00;1612480;88;21789;-83
2021/05/01 06:37:57;;;;;;;11.75;10.68;;;;;;;22.10;48.64;100134.56;1601810;88;21234;-84
2021/05/01 06:40:31;;;;;;;12.07;11.08;;;;;;;22.11;47.42;100140.80;1608036;89;21229;-84
2021/05/01 06:43:04;;;;;;;12.53;11.30;;;;;;;22.02;48.20;100141.05;1602284;89;21225;-87
2021/05/01 06:45:34;;;;;;;11.25;10.23;;;;;;;21.97;47.22;100146.75;1613775;87;21126;-83
2021/05/01 06:48:06;;;;;;;11.78;10.63;;;;;;;21.89;48.28;100153.27;1620630;88;21186;-82
2021/05/01 06:50:34;;;;;;;12.07;11.08;;;;;;;22.00;49.21;100152.72;1628021;87;21626;-84
2021/05/01 06:53:02;;;;;;;11.08;10.05;;;;;;;22.22;47.78;100153.84;1640884;87;21184;-84
2021/05/01 06:55:32;;;;;;;12.10;10.15;;;;;;;22.27;46.82;100154.70;1639167;86;21823;-83
2021/05/01 06:58:02;;;;;;;10.10;9.20;;;;;;;22.33;46.83;100161.75;1647332;87;21308;-84
2021/05/01 07:00:30;;;;;;;11.45;10.45;;;;;;;22.43;47.05;100160.13;1642716;86;21116;-84
2021/05/01 07:03:05;;;;;;;10.38;9.48;;;;;;;22.66;45.56;100158.23;1639135;85;21176;-86
2021/05/01 07:05:35;;;;;;;11.10;10.17;;;;;;;22.71;44.99;100159.55;1632923;85;21201;-86
2021/05/01 07:08:04;;;;;;;10.32;9.53;;;;;;;22.67;45.74;100159.03;1619252;87;21733;-83
2021/05/01 07:10:31;;;;;;;11.53;10.72;;;;;;;22.73;45.88;100152.50;1637063;85;21401;-83
2021/05/01 07:13:01;;;;;;;10.65;9.75;;;;;;;22.87;44.39;100151.41;1642887;85;21176;-83
2021/05/01 07:15:29;;;;;;;12.05;10.08;;;;;;;22.79;43.90;100152.75;1651908;85;21615;-86
2021/05/01 07:17:58;;;;;;;9.45;8.63;;;;;;;22.51;44.32;100156.88;1655607;85;21211;-84
2021/05/01 07:20:26;;;;;;;10.68;9.85;;;;;;;22.29;45.24;100158.50;1622928;87;21542;-84
2021/05/01 07:22:54;;;;;;;9.05;8.25;;;;;;;22.02;45.50;100146.48;1625242;86;21083;-84
2021/05/01 07:25:23;;;;;;;10.05;9.15;;;;;;;21.81;46.42;100151.86;1668628;84;21169;-85
2021/05/01 07:28:01;;;;;;;6.85;6.35;;;;;;;21.73;46.46;100141.00;1671170;84;21303;-83
2021/05/01 07:30:32;;;;;;;6.37;6.00;;;;;;;21.73;43.37;100145.06;1666849;84;21202;-87
2021/05/01 07:33:31;;;;;;;7.80;7.22;;;;;;;21.66;43.24;100149.11;1669022;84;21193;-85
2021/05/01 07:36:03;;;;;;;6.95;6.28;;;;;;;21.51;43.09;100150.71;1662105;84;21647;-82
2021/05/01 07:38:32;;;;;;;4.45;4.15;;;;;;;21.30;42.77;100148.95;1670687;84;21207;-83
2021/05/01 07:41:03;;;;;;;4.80;4.47;;;;;;;21.19;41.71;100154.84;1670693;84;21189;-84
2021/05/01 07:43:31;;;;;;;5.85;5.35;;;;;;;21.11;42.23;100157.52;1671587;84;21169;-82
2021/05/01 07:46:06;;;;;;;5.40;4.95;;;;;;;21.04;42.15;100154.25;1670997;84;21106;-81
2021/05/01 07:48:32;;;;;;;4.25;3.90;;;;;;;21.04;38.82;100150.19;1671659;84;21304;-84
2021/05/01 07:51:01;;;;;;;5.62;5.20;;;;;;;21.00;39.46;100153.13;1672660;84;21184;-84
2021/05/01 07:53:28;;;;;;;5.12;4.70;;;;;;;20.87;39.19;100145.45;1680094;84;21380;-85
2021/05/01 07:55:57;;;;;;;3.80;3.65;;;;;;;20.76;39.03;100144.05;1644831;85;21268;-82
2021/05/01 07:58:24;;;;;;;4.92;4.53;;;;;;;20.67;39.86;100145.61;1610614;87;21215;-86
2021/05/01 08:00:58;;;;;;;5.15;4.62;;;;;;;20.70;39.55;100145.09;1614202;85;21066;-86
2021/05/01 08:04:38;;;;;;;4.10;3.67;;;;;;;20.90;37.47;100136.81;1876953;74;22349;-86
2021/05/01 08:07:05;;;;;;;3.77;2.90;;;;;;;20.95;36.50;100138.21;1868121;75;21314;-84
2021/05/01 08:09:33;;;;;;;3.92;3.08;;;;;;;20.94;36.84;100149.56;1804683;78;21635;-83
2021/05/01 08:12:00;;;;;;;2.98;2.77;;;;;;;20.93;36.74;100148.50;1753188;78;21249;-85
2021/05/01 08:14:26;;;;;;;2.72;2.08;;;;;;;20.92;35.81;100146.30;1750575;81;21207;-84
2021/05/01 08:16:53;;;;;;;3.45;2.10;;;;;;;20.95;34.14;100152.56;1719346;81;21207;-84
2021/05/01 08:19:21;;;;;;;2.05;1.95;;;;;;;21.00;33.14;100151.77;1720436;81;21393;-84
2021/05/01 08:21:48;;;;;;;2.30;2.10;;;;;;;21.04;32.87;100155.61;1731850;81;21214;-83
2021/05/01 08:24:15;;;;;;;2.37;2.12;;;;;;;21.09;32.38;100156.16;1740919;81;21655;-84
2021/05/01 08:26:43;;;;;;;3.05;2.10;;;;;;;21.09;31.54;100158.87;1745522;81;21199;-84
2021/05/01 08:29:10;;;;;;;4.85;2.85;;;;;;;21.07;31.45;100160.48;1745286;81;21178;-84
2021/05/01 08:31:37;;;;;;;3.22;1.75;;;;;;;21.06;31.94;100162.94;1737845;81;21173;-83
2021/05/01 08:34:04;;;;;;;3.12;2.92;;;;;;;21.05;32.33;100166.70;1737652;81;21294;-86
2021/05/01 08:36:33;;;;;;;2.77;2.45;;;;;;;21.14;32.11;100168.39;1743966;80;21214;-83
2021/05/01 08:39:03;;;;;;;3.47;1.87;;;;;;;21.19;31.46;100166.53;1755253;80;21210;-84
2021/05/01 08:41:30;;;;;;;2.22;1.95;;;;;;;21.24;31.32;100168.98;1734495;82;21765;-82
2021/05/01 08:44:09;;;;;;;1.72;1.62;;;;;;;21.31;31.57;100168.21;1753687;80;21364;-85
2021/05/01 08:46:37;;;;;;;;;;;;;;;20.60;30.95;100052.95;1738279;81;21819;-84
2021/05/01 08:49:09;;;;;;;3.35;2.45;;;;;;;21.33;30.82;100175.53;1721168;82;20192;-85
2021/05/01 08:51:40;;;;;;;2.60;2.50;;;;;;;21.28;30.62;100170.08;1743280;81;21235;-87
2021/05/01 08:54:06;;;;;;;1.75;1.75;;;;;;;21.19;30.00;100171.95;1745493;81;22205;-85
2021/05/01 08:56:33;;;;;;;2.50;2.30;;;;;;;21.03;29.69;100173.48;1745109;78;21280;-85
2021/05/01 08:59:00;;;;;;;2.17;2.00;;;;;;;20.92;30.78;100176.11;1763332;80;21197;-84
2021/05/01 09:01:28;;;;;;;3.40;2.87;;;;;;;20.91;30.52;100170.97;1770048;79;21111;-85
2021/05/01 09:03:58;;;;;;;2.20;2.10;;;;;;;20.86;31.13;100160.09;1737885;80;22851;-86
2021/05/01 09:06:27;;;;;;;4.12;2.65;;;;;;;20.82;32.58;100167.11;1760565;81;21471;-86
2021/05/01 09:08:59;;;;;;;2.00;1.90;;;;;;;20.87;32.42;100167.13;1766654;79;21613;-87
2021/05/01 09:12:05;;;;;;;2.50;2.33;;;;;;;21.04;31.34;100169.67;1762720;79;22220;-89
2021/05/01 09:14:34;;;;;;;2.12;1.98;;;;;;;21.03;31.72;100172.93;1684902;84;21209;-88
2021/05/01 09:17:07;;;;;;;1.77;1.67;;;;;;;21.08;31.10;100172.13;1680853;84;21214;-86
2021/05/01 09:19:39;;;;;;;2.60;2.37;;;;;;;21.14;31.38;100167.04;1670429;84;21190;-83
2021/05/01 09:22:11;;;;;;;1.87;1.77;;;;;;;21.16;31.07;100171.11;1650379;85;21674;-84
2021/05/01 09:24:43;;;;;;;1.62;1.52;;;;;;;21.19;30.60;100171.11;1662222;85;21341;-85
2021/05/01 09:27:27;;;;;;;2.83;1.77;;;;;;;21.28;30.73;100178.22;1767265;79;23531;-83
2021/05/01 09:29:54;;;;;;;2.58;1.92;;;;;;;21.29;30.17;100174.44;1731166;80;21710;-90
2021/05/01 09:32:26;;;;;;;2.95;2.75;;;;;;;21.34;30.14;100171.21;1720135;82;21384;-83
2021/05/01 09:34:55;;;;;;;1.60;1.60;;;;;;;21.39;29.53;100175.83;1696835;83;21261;-84
2021/05/01 09:37:26;;;;;;;2.10;1.85;;;;;;;21.41;29.66;100179.09;1694982;83;21160;-85
2021/05/01 09:39:56;;;;;;;2.15;1.98;;;;;;;21.51;30.53;100175.11;1685500;83;21648;-85
2021/05/01 09:42:24;;;;;;;2.17;2.08;;;;;;;21.64;30.81;100162.94;1646128;85;21221;-84
2021/05/01 09:45:19;;;;;;;1.92;1.80;;;;;;;21.77;30.67;100165.69;1643841;85;21090;-82
2021/05/01 09:47:50;;;;;;;2.10;1.85;;;;;;;21.88;30.15;100155.69;1624675;86;21199;-83
2021/05/01 09:50:23;;;;;;;2.05;1.95;;;;;;;21.94;30.50;100164.94;1589710;89;21195;-84
2021/05/01 09:53:03;;;;;;;2.85;2.65;;;;;;;21.91;29.55;100160.05;1610297;88;21210;-85
2021/05/01 09:55:54;;;;;;;3.72;2.00;;;;;;;21.75;29.09;100162.44;1606068;87;21482;-84
2021/05/01 09:58:27;;;;;;;1.57;1.47;;;;;;;21.56;29.92;100158.84;1613513;87;21225;-84
2021/05/01 10:01:14;;;;;;;1.90;1.80;;;;;;;21.42;29.71;100156.85;1629329;85;21070;-84
2021/05/01 10:03:42;;;;;;;2.20;2.10;;;;;;;21.46;29.50;100151.23;1623541;87;21767;-83
2021/05/01 10:06:15;;;;;;;2.33;1.87;;;;;;;21.51;30.67;100154.78;1637086;86;21165;-83
2021/05/01 10:08:42;;;;;;;2.27;2.10;;;;;;;21.56;30.84;100159.39;1666443;84;21172;-86
2021/05/01 10:11:12;;;;;;;2.92;2.60;;;;;;;21.61;30.95;100154.54;1656455;84;21227;-83
2021/05/01 10:13:52;;;;;;;2.92;2.80;;;;;;;21.65;30.91;100154.28;1616477;87;21233;-84
2021/05/01 10:16:20;;;;;;;;;;;;;;;21.58;30.74;100158.03;1620180;87;21344;-83
2021/05/01 10:19:09;;;;;;;3.85;2.50;;;;;;;21.54;30.78;100152.87;1600214;87;20175;-84
2021/05/01 10:21:40;;;;;;;2.37;2.27;;;;;;;21.53;31.03;100153.13;1609109;87;21307;-84
2021/05/01 10:24:09;;;;;;;3.83;1.98;;;;;;;21.53;30.91;100153.97;1643189;85;21096;-85
2021/05/01 10:26:51;;;;;;;2.10;1.90;;;;;;;21.56;31.13;100143.92;1644094;85;21618;-84
2021/05/01 10:29:34;;;;;;;2.33;1.55;;;;;;;21.66;31.00;100147.75;1637554;86;21626;-82
2021/05/01 10:31:59;;;;;;;1.30;1.20;;;;;;;21.82;30.31;100141.30;1640575;86;21175;-84
2021/05/01 10:34:27;;;;;;;1.27;1.17;;;;;;;21.96;28.62;100139.70;1617253;86;21523;-84
2021/05/01 10:36:59;;;;;;;3.40;1.40;;;;;;;22.03;28.08;100145.41;1613764;87;21223;-85
2021/05/01 10:39:26;;;;;;;1.55;1.02;;;;;;;22.05;28.57;100141.33;1616754;87;21262;-84
2021/05/01 10:42:01;;;;;;;2.00;1.72;;;;;;;22.10;27.97;100144.61;1613675;87;21266;-85
2021/05/01 10:44:29;;;;;;;2.08;1.85;;;;;;;22.10;28.30;100143.25;1585364;88;22130;-83
2021/05/01 10:47:13;;;;;;;0.75;0.75;;;;;;;22.08;28.43;100146.23;1586316;88;21226;-84
2021/05/01 10:49:42;;;;;;;1.32;1.32;;;;;;;22.10;29.05;100145.97;1596239;88;21225;-85
2021/05/01 10:52:15;;;;;;;1.62;1.52;;;;;;;22.13;29.08;100139.45;1619887;87;21210;-84
2021/05/01 10:55:04;;;;;;;2.10;1.45;;;;;;;22.16;28.07;100147.59;1596499;87;21336;-84
2021/05/01 10:57:35;;;;;;;4.03;1.60;;;;;;;22.16;28.17;100149.76;1616950;87;21162;-85
2021/05/01 11:00:10;;;;;;;4.08;1.55;;;;;;;21.99;28.26;100141.06;1609769;88;21172;-84
2021/05/01 11:02:41;;;;;;;2.00;1.32;;;;;;;21.91;28.42;100142.95;1589267;88;21245;-85
2021/05/01 11:05:14;;;;;;;1.67;1.37;;;;;;;21.87;28.44;100147.27;1604010;88;21194;-84
2021/05/01 11:08:22;;;;;;;1.60;1.50;;;;;;;21.84;28.26;100143.75;1607531;88;21294;-86
2021/05/01 11:10:53;;;;;;;1.22;1.07;;;;;;;21.84;28.53;100142.39;1607918;88;21204;-85
2021/05/01 11:13:28;;;;;;;1.07;1.07;;;;;;;21.89;28.49;100137.79;1557322;85;21212;-84
2021/05/01 11:15:59;;;;;;;3.25;1.95;;;;;;;21.96;28.49;100127.50;1568761;90;21206;-85
2021/05/01 11:18:27;;;;;;;2.70;1.35;;;;;;;22.00;28.54;100132.37;1564998;90;21247;-83
2021/05/01 11:21:00;;;;;;;2.58;2.47;;;;;;;21.82;28.46;100106.58;1566016;90;21227;-82
2021/05/01 11:23:30;;;;;;;2.95;1.35;;;;;;;21.95;28.77;100129.12;1568561;89;21129;-83
2021/05/01 11:25:59;;;;;;;1.75;1.50;;;;;;;21.97;29.02;100124.23;1628030;86;21975;-84
2021/05/01 11:28:27;;;;;;;1.37;1.00;;;;;;;21.93;29.01;100123.95;1633715;86;21751;-85
2021/05/01 11:30:55;;;;;;;3.40;1.65;;;;;;;21.87;28.90;100130.47;1603798;87;21618;-84